GMP weather

Gimpo International Airport
Seoul, Seoul Teugbyeolsi, South Korea

Public forecast

Using degrees Celsius for public forecast. Weather courtesy of forecast.io.

Current aviation weather report (METAR) for Gimpo International Airport

Retrieved 2019/10/13 23:00 UTC (32 minutes ago):

RKSS 132300Z 28001KT 9999 FEW015 SCT200 14/12 Q1025 NOSIG

Aviation forecast (TAF) for Gimpo International Airport

Retrieved 2019/10/13 18:00 UTC (6 hours ago):

TAF RKSS 131700Z 1318/1424 30005KT 6000 NSC TN11/1321Z TX18/1406Z TN08/1421Z BECMG 1321/1322 4200 BR SCT030 BECMG 1323/1324 33008KT CAVOK TEMPO 1403/1407 33015G25KT BECMG 1417/1418 08007KT 9999 SCT030